Time;durP1;ratioP1;P1;durP2;ratioP2;P2;SDS_P1;SDS_P2;PMS_P1;PMS_P2;Temp;Humidity;BMP_temperature;BMP_pressure;BME280_temperature;BME280_humidity;BME280_pressure;Samples;Min_cycle;Max_cycle;Signal;HPM_P1;HPM_P2
2023/03/21 00:00:30;;;;;;;45.45;31.08;;;8.90;99.90;;;;;;5017660;28;20044;-53
2023/03/21 00:02:56;;;;;;;50.05;33.33;;;8.90;99.90;;;;;;5028560;28;20042;-52
2023/03/21 00:05:22;;;;;;;53.25;33.40;;;8.90;99.90;;;;;;5030599;28;20046;-50
2023/03/21 00:07:47;;;;;;;51.20;33.67;;;9.00;99.90;;;;;;5018711;28;20089;-51
2023/03/21 00:10:13;;;;;;;52.55;34.42;;;9.00;99.90;;;;;;5018715;28;20059;-51
2023/03/21 00:12:39;;;;;;;51.67;33.30;;;8.90;99.90;;;;;;5020410;28;20038;-53
2023/03/21 00:15:06;;;;;;;44.40;32.63;;;9.00;99.90;;;;;;5014422;28;20045;-52
2023/03/21 00:17:32;;;;;;;59.20;34.60;;;9.00;99.90;;;;;;5014657;28;20041;-53
2023/03/21 00:19:59;;;;;;;51.58;32.75;;;9.00;99.90;;;;;;5031657;28;20184;-49
2023/03/21 00:22:26;;;;;;;56.53;36.53;;;9.10;99.90;;;;;;5032126;28;20037;-54
2023/03/21 00:24:55;;;;;;;61.80;37.08;;;9.00;99.90;;;;;;5030602;28;20041;-53
2023/03/21 00:27:21;;;;;;;48.22;35.92;;;9.10;99.90;;;;;;5028192;28;20424;-51
2023/03/21 00:29:50;;;;;;;49.17;35.13;;;9.10;99.90;;;;;;5023012;28;20042;-49
2023/03/21 00:32:17;;;;;;;47.70;35.20;;;9.10;99.90;;;;;;5019326;28;20046;-50
2023/03/21 00:34:43;;;;;;;48.35;35.80;;;9.10;99.90;;;;;;5031561;28;20073;-50
2023/03/21 00:37:13;;;;;;;55.08;36.78;;;9.10;99.90;;;;;;5031742;28;20119;-53
2023/03/21 00:39:39;;;;;;;49.35;36.20;;;9.10;99.90;;;;;;5015421;28;20089;-49
2023/03/21 00:42:04;;;;;;;50.22;36.78;;;9.10;99.90;;;;;;5013926;28;20041;-51
2023/03/21 00:44:35;;;;;;;49.75;37.85;;;9.20;99.90;;;;;;5013988;28;20490;-49
2023/03/21 00:47:02;;;;;;;52.78;37.35;;;9.20;99.90;;;;;;4998004;28;20089;-52
2023/03/21 00:49:32;;;;;;;56.90;37.17;;;9.20;99.90;;;;;;5013633;28;20042;-54
2023/03/21 00:51:59;;;;;;;45.05;34.72;;;9.20;99.90;;;;;;5018063;28;20054;-51
2023/03/21 00:54:24;;;;;;;42.08;34.65;;;9.20;99.90;;;;;;5013998;28;20495;-53
2023/03/21 00:56:50;;;;;;;56.22;37.22;;;9.20;99.90;;;;;;5015152;28;20056;-50
2023/03/21 00:59:16;;;;;;;46.67;35.33;;;9.20;99.90;;;;;;5013543;28;20060;-54
2023/03/21 01:01:41;;;;;;;47.13;35.80;;;9.20;99.90;;;;;;5013608;28;20538;-53
2023/03/21 01:04:12;;;;;;;52.80;37.13;;;9.20;99.90;;;;;;5016474;28;20034;-50
2023/03/21 01:06:39;;;;;;;42.30;34.85;;;9.20;99.90;;;;;;5018439;28;20129;-54
2023/03/21 01:09:06;;;;;;;44.47;35.15;;;9.30;99.90;;;;;;5017998;28;20060;-49
2023/03/21 01:11:33;;;;;;;44.83;34.63;;;9.30;99.90;;;;;;5016732;28;20042;-50
2023/03/21 01:13:59;;;;;;;40.50;32.80;;;9.30;99.90;;;;;;5018433;28;20750;-53
2023/03/21 01:16:26;;;;;;;41.70;33.47;;;9.30;99.90;;;;;;5016569;28;20044;-50
2023/03/21 01:18:52;;;;;;;42.97;32.90;;;9.30;99.90;;;;;;5017914;28;20042;-50
2023/03/21 01:21:18;;;;;;;39.20;31.52;;;9.30;99.90;;;;;;5017895;28;20048;-49
2023/03/21 01:23:45;;;;;;;40.58;31.75;;;9.30;99.90;;;;;;5019586;28;20041;-50
2023/03/21 01:26:11;;;;;;;39.38;30.98;;;9.30;99.90;;;;;;5017077;28;20147;-50
2023/03/21 01:28:39;;;;;;;41.78;31.83;;;9.30;99.90;;;;;;5000947;28;20758;-53
2023/03/21 01:31:05;;;;;;;38.22;31.85;;;9.30;99.90;;;;;;5006516;28;20450;-53
2023/03/21 01:33:32;;;;;;;38.55;30.50;;;9.30;99.90;;;;;;5015425;28;20077;-51
2023/03/21 01:35:58;;;;;;;34.38;29.98;;;9.30;99.90;;;;;;5017714;28;20037;-50
2023/03/21 01:38:24;;;;;;;39.30;29.88;;;9.40;99.90;;;;;;5002548;28;20375;-53
2023/03/21 01:40:51;;;;;;;39.55;31.27;;;9.40;99.90;;;;;;5018333;28;20111;-53
2023/03/21 01:43:32;;;;;;;35.00;30.48;;;9.30;99.90;;;;;;5028923;28;20069;-51
2023/03/21 01:46:26;;;;;;;35.67;28.45;;;9.40;99.90;;;;;;5025450;28;20129;-49
2023/03/21 01:49:14;;;;;;;34.40;28.75;;;9.40;99.90;;;;;;5025564;28;20037;-51
2023/03/21 01:51:47;;;;;;;34.03;27.75;;;9.40;99.90;;;;;;5026209;28;20050;-51
2023/03/21 01:54:19;;;;;;;31.67;26.45;;;9.40;99.90;;;;;;5008211;28;20038;-53
2023/03/21 01:56:46;;;;;;;35.45;27.17;;;9.40;99.90;;;;;;5018683;28;20084;-51
2023/03/21 01:59:23;;;;;;;32.22;26.33;;;9.40;99.90;;;;;;5017001;28;20048;-53
2023/03/21 02:01:50;;;;;;;31.42;26.65;;;9.40;99.90;;;;;;5018188;28;20045;-50
2023/03/21 02:04:21;;;;;;;30.57;25.80;;;9.40;99.90;;;;;;5030626;28;20049;-49
2023/03/21 02:07:01;;;;;;;32.35;25.27;;;9.40;99.90;;;;;;5020848;28;20273;-51
2023/03/21 02:09:32;;;;;;;30.02;24.90;;;9.40;99.90;;;;;;5029035;28;20116;-49
2023/03/21 02:11:59;;;;;;;28.33;23.63;;;9.40;99.90;;;;;;5033947;28;20049;-49
2023/03/21 02:14:24;;;;;;;28.25;24.35;;;9.40;99.90;;;;;;5034299;28;20037;-49
2023/03/21 02:16:57;;;;;;;28.80;23.58;;;9.40;99.90;;;;;;5033078;28;20045;-49
2023/03/21 02:19:23;;;;;;;28.20;24.02;;;9.40;99.90;;;;;;5035185;28;20037;-50
2023/03/21 02:22:11;;;;;;;28.55;23.25;;;9.40;99.90;;;;;;5026149;28;20048;-51
2023/03/21 02:25:14;;;;;;;27.55;22.35;;;9.40;99.90;;;;;;5017160;28;20053;-50
2023/03/21 02:27:48;;;;;;;26.00;22.15;;;9.40;99.90;;;;;;5014416;28;20076;-50
2023/03/21 02:30:49;;;;;;;26.83;21.25;;;9.40;99.90;;;;;;5031329;28;20056;-51
2023/03/21 02:33:49;;;;;;;30.25;22.75;;;9.40;99.90;;;;;;5033614;28;20041;-51
2023/03/21 02:36:53;;;;;;;26.80;23.13;;;9.40;99.90;;;;;;5030198;28;20053;-49
2023/03/21 02:39:31;;;;;;;30.02;22.27;;;9.40;99.90;;;;;;5031008;28;20052;-50
2023/03/21 02:42:09;;;;;;;27.70;24.45;;;9.40;99.90;;;;;;5014846;28;20053;-50
2023/03/21 02:44:48;;;;;;;29.40;24.02;;;9.40;99.90;;;;;;5019176;28;20549;-50
2023/03/21 02:47:35;;;;;;;31.17;24.85;;;9.40;99.90;;;;;;5004309;28;20156;-53
2023/03/21 02:50:19;;;;;;;29.73;25.20;;;9.40;99.90;;;;;;5014740;28;20075;-51
2023/03/21 02:52:48;;;;;;;32.35;25.55;;;9.40;99.90;;;;;;5018781;28;20060;-52
2023/03/21 02:55:17;;;;;;;;;;;9.40;99.90;;;;;;5017169;28;20060;-53
2023/03/21 02:57:45;;;;;;;34.55;26.85;;;9.40;99.90;;;;;;5003714;28;19925;-51
2023/03/21 03:00:17;;;;;;;30.38;26.30;;;9.40;99.90;;;;;;5024291;28;20065;-50
2023/03/21 03:02:43;;;;;;;31.48;25.10;;;9.40;99.90;;;;;;5017561;28;20048;-51
2023/03/21 03:05:17;;;;;;;30.20;25.42;;;9.40;99.90;;;;;;5023998;28;20053;-49
2023/03/21 03:07:58;;;;;;;34.03;26.90;;;9.40;99.90;;;;;;5014983;28;20075;-50
2023/03/21 03:10:47;;;;;;;30.98;26.90;;;9.40;99.90;;;;;;5014982;28;20060;-51
2023/03/21 03:13:24;;;;;;;31.33;26.20;;;9.40;99.90;;;;;;5016185;28;20141;-50
2023/03/21 03:16:04;;;;;;;35.67;27.80;;;9.40;99.90;;;;;;5016605;28;20038;-49
2023/03/21 03:18:41;;;;;;;30.92;27.52;;;9.40;99.90;;;;;;5015376;28;20045;-52
2023/03/21 03:21:17;;;;;;;36.00;26.95;;;9.40;99.90;;;;;;5015487;28;20124;-49
2023/03/21 03:23:51;;;;;;;33.97;27.00;;;9.40;99.90;;;;;;5013855;28;20529;-49
2023/03/21 03:26:29;;;;;;;33.42;26.83;;;9.30;99.90;;;;;;5016970;28;20057;-51
2023/03/21 03:28:57;;;;;;;;;;;9.30;99.90;;;;;;5018490;28;20033;-52
2023/03/21 03:31:29;;;;;;;35.42;27.80;;;9.40;99.90;;;;;;5015553;28;20370;-53
2023/03/21 03:33:59;;;;;;;33.92;28.45;;;9.30;99.90;;;;;;5012113;28;20045;-51
2023/03/21 03:36:35;;;;;;;39.80;30.40;;;9.40;99.90;;;;;;5015389;28;20366;-50
2023/03/21 03:39:04;;;;;;;37.58;27.10;;;9.40;99.90;;;;;;5012397;28;20523;-54
2023/03/21 03:41:35;;;;;;;39.63;30.10;;;9.30;99.90;;;;;;5004189;28;21311;-50
2023/03/21 03:44:02;;;;;;;34.47;29.08;;;9.40;99.90;;;;;;4997973;28;20514;-52
2023/03/21 03:46:40;;;;;;;37.28;28.13;;;9.30;99.90;;;;;;5013714;28;20445;-53
2023/03/21 03:49:18;;;;;;;38.90;30.48;;;9.30;99.90;;;;;;5016632;28;20121;-55
2023/03/21 03:51:59;;;;;;;44.10;30.58;;;9.30;99.90;;;;;;5011945;28;20395;-54
2023/03/21 03:54:33;;;;;;;39.10;30.33;;;9.30;99.90;;;;;;5015628;28;20057;-52
2023/03/21 03:57:00;;;;;;;43.08;29.42;;;9.30;99.90;;;;;;5013106;28;20052;-52
2023/03/21 03:59:26;;;;;;;42.45;29.88;;;9.30;99.90;;;;;;5015490;28;20033;-50
2023/03/21 04:01:51;;;;;;;41.13;29.60;;;9.30;99.90;;;;;;5006481;28;20095;-52
2023/03/21 04:04:17;;;;;;;41.72;29.50;;;9.30;99.90;;;;;;5029926;28;20053;-50
2023/03/21 04:06:50;;;;;;;37.38;28.38;;;9.30;99.90;;;;;;5025942;28;20033;-50
2023/03/21 04:09:17;;;;;;;44.08;30.55;;;9.30;99.90;;;;;;5028223;28;20129;-50
2023/03/21 04:11:43;;;;;;;43.90;30.55;;;9.30;99.90;;;;;;5027834;28;20371;-53
2023/03/21 04:14:08;;;;;;;42.40;30.27;;;9.30;99.90;;;;;;5032311;28;20040;-51
2023/03/21 04:16:34;;;;;;;41.38;30.02;;;9.30;99.90;;;;;;5032314;28;20041;-49
2023/03/21 04:19:00;;;;;;;38.45;28.83;;;9.30;99.90;;;;;;5014456;28;20044;-49
2023/03/21 04:21:27;;;;;;;40.65;29.85;;;9.30;99.90;;;;;;5028545;28;20422;-52
2023/03/21 04:23:56;;;;;;;38.67;29.35;;;9.30;99.90;;;;;;5026891;28;20493;-50
2023/03/21 04:26:22;;;;;;;39.78;29.10;;;9.30;99.90;;;;;;5032517;28;20083;-50
2023/03/21 04:28:49;;;;;;;37.65;29.00;;;9.30;99.90;;;;;;5014482;28;20052;-49
2023/03/21 04:31:16;;;;;;;40.22;30.27;;;9.30;99.90;;;;;;5032040;28;20045;-51
2023/03/21 04:33:42;;;;;;;39.28;29.52;;;9.30;99.90;;;;;;5015504;28;20080;-49
2023/03/21 04:36:24;;;;;;;39.92;30.55;;;9.30;99.90;;;;;;5018796;28;20083;-52
2023/03/21 04:38:51;;;;;;;36.05;28.58;;;9.30;99.90;;;;;;5016711;28;20042;-50
2023/03/21 04:41:17;;;;;;;43.50;30.25;;;9.20;99.90;;;;;;5018046;28;20053;-54
2023/03/21 04:43:43;;;;;;;40.28;29.50;;;9.30;99.90;;;;;;5019602;28;20048;-52
2023/03/21 04:46:09;;;;;;;41.72;30.02;;;9.30;99.90;;;;;;5026800;28;20045;-52
2023/03/21 04:48:35;;;;;;;40.08;28.70;;;9.30;99.90;;;;;;5020131;28;20781;-51
2023/03/21 04:51:01;;;;;;;43.47;30.40;;;9.30;99.90;;;;;;5021322;28;20052;-51
2023/03/21 04:53:27;;;;;;;40.70;29.58;;;9.30;99.90;;;;;;5018297;28;20049;-51
2023/03/21 04:55:52;;;;;;;40.67;29.90;;;9.30;99.90;;;;;;5018992;28;20064;-52
2023/03/21 04:58:19;;;;;;;38.58;30.02;;;9.30;99.90;;;;;;5009358;28;20042;-51
2023/03/21 05:00:46;;;;;;;41.58;29.30;;;9.30;99.90;;;;;;5019426;28;20405;-51
2023/03/21 05:03:18;;;;;;;41.42;28.65;;;9.30;99.90;;;;;;5016267;28;20049;-49
2023/03/21 05:05:44;;;;;;;38.55;29.63;;;9.30;99.90;;;;;;5016863;28;20516;-50
2023/03/21 05:08:10;;;;;;;42.05;29.77;;;9.30;99.90;;;;;;5016451;28;20041;-52
2023/03/21 05:10:35;;;;;;;40.80;29.00;;;9.30;99.90;;;;;;5017101;28;20034;-51
2023/03/21 05:13:01;;;;;;;44.13;30.55;;;9.30;99.90;;;;;;5022554;28;20405;-51
2023/03/21 05:15:27;;;;;;;44.15;31.45;;;9.20;99.90;;;;;;5019459;28;20141;-53
2023/03/21 05:17:52;;;;;;;48.10;29.13;;;9.20;99.90;;;;;;5019573;28;20498;-54
2023/03/21 05:20:18;;;;;;;41.67;30.48;;;9.20;99.90;;;;;;5024093;28;20042;-49
2023/03/21 05:22:45;;;;;;;39.30;28.85;;;9.20;99.90;;;;;;5021391;28;20108;-54
2023/03/21 05:25:12;;;;;;;41.38;29.10;;;9.20;99.90;;;;;;5014429;28;20125;-51
2023/03/21 05:27:44;;;;;;;45.72;29.25;;;9.30;99.90;;;;;;5018924;28;20045;-51
2023/03/21 05:30:11;;;;;;;37.50;27.25;;;9.20;99.90;;;;;;5017213;28;20519;-49
2023/03/21 05:32:37;;;;;;;34.83;27.10;;;9.20;99.90;;;;;;5017849;28;20084;-54
2023/03/21 05:35:03;;;;;;;33.03;25.55;;;9.20;99.90;;;;;;5004089;28;20041;-53
2023/03/21 05:37:28;;;;;;;32.30;25.50;;;9.20;99.90;;;;;;5017757;28;20041;-50
2023/03/21 05:39:54;;;;;;;33.83;27.60;;;9.20;99.90;;;;;;5002795;28;20091;-52
2023/03/21 05:42:20;;;;;;;33.70;26.02;;;9.20;99.90;;;;;;5016816;28;20113;-51
2023/03/21 05:44:46;;;;;;;30.45;25.70;;;9.20;99.90;;;;;;5015082;28;20391;-51
2023/03/21 05:47:13;;;;;;;38.85;27.52;;;9.30;99.90;;;;;;5016167;28;20045;-49
2023/03/21 05:49:39;;;;;;;35.97;25.80;;;9.20;99.90;;;;;;5015197;28;21399;-52
2023/03/21 05:52:05;;;;;;;37.13;27.90;;;9.20;99.90;;;;;;5003684;28;20041;-50
2023/03/21 05:54:30;;;;;;;36.63;27.25;;;9.20;99.90;;;;;;5017275;28;20148;-51
2023/03/21 05:56:56;;;;;;;33.67;26.25;;;9.20;99.90;;;;;;5017631;28;20049;-53
2023/03/21 05:59:22;;;;;;;35.60;27.45;;;9.20;99.90;;;;;;5016293;28;20147;-50
2023/03/21 06:01:48;;;;;;;36.55;27.65;;;9.20;99.90;;;;;;5024009;28;20053;-53
2023/03/21 06:04:14;;;;;;;37.17;28.50;;;9.20;99.90;;;;;;5025063;28;20045;-53
2023/03/21 06:06:39;;;;;;;35.20;27.50;;;9.20;99.90;;;;;;5027448;28;20124;-51
2023/03/21 06:09:06;;;;;;;38.95;29.13;;;9.20;99.90;;;;;;5005380;28;20554;-51
2023/03/21 06:11:36;;;;;;;40.15;28.17;;;9.20;99.90;;;;;;5020297;28;20053;-53
2023/03/21 06:14:02;;;;;;;41.08;28.67;;;9.30;99.90;;;;;;5026955;28;20426;-53
2023/03/21 06:16:28;;;;;;;37.97;28.33;;;9.30;99.90;;;;;;5031682;28;20037;-51
2023/03/21 06:18:54;;;;;;;34.47;27.23;;;9.30;99.90;;;;;;5033906;28;20034;-52
2023/03/21 06:21:20;;;;;;;37.33;25.90;;;9.30;99.90;;;;;;5005071;28;20045;-51
2023/03/21 06:23:46;;;;;;;34.45;26.67;;;9.30;99.90;;;;;;5031718;28;20390;-50
2023/03/21 06:26:12;;;;;;;34.85;24.48;;;9.30;99.90;;;;;;5029321;28;20142;-54
2023/03/21 06:28:38;;;;;;;30.83;24.05;;;9.30;99.90;;;;;;5009842;28;20077;-51
2023/03/21 06:31:04;;;;;;;34.85;23.83;;;9.30;99.90;;;;;;5029214;28;20509;-54
2023/03/21 06:33:30;;;;;;;32.70;23.33;;;9.30;99.90;;;;;;5033274;28;20053;-53
2023/03/21 06:35:57;;;;;;;28.65;21.73;;;9.30;99.90;;;;;;5033771;28;20409;-51
2023/03/21 06:38:24;;;;;;;28.52;22.55;;;9.40;99.90;;;;;;5018202;28;20046;-52
2023/03/21 06:40:50;;;;;;;30.85;22.13;;;9.40;99.90;;;;;;5015628;28;20034;-52
2023/03/21 06:43:16;;;;;;;28.05;21.85;;;9.40;99.90;;;;;;5014293;28;20077;-50
2023/03/21 06:45:42;;;;;;;26.48;21.17;;;9.40;99.90;;;;;;5014983;28;20057;-54
2023/03/21 06:48:08;;;;;;;28.42;20.80;;;9.40;99.90;;;;;;5015390;28;20130;-54
2023/03/21 06:50:34;;;;;;;25.50;20.73;;;9.40;99.90;;;;;;5015563;28;20137;-52
2023/03/21 06:52:59;;;;;;;29.67;21.63;;;9.40;99.90;;;;;;4997518;28;20067;-54
2023/03/21 06:55:27;;;;;;;28.13;19.80;;;9.40;99.90;;;;;;5013996;28;20069;-49
2023/03/21 06:57:54;;;;;;;27.00;20.02;;;9.50;99.90;;;;;;5016711;28;20076;-50
2023/03/21 07:00:20;;;;;;;27.45;20.35;;;9.60;99.90;;;;;;5015463;28;20041;-51
2023/03/21 07:02:46;;;;;;;23.55;20.05;;;9.60;99.90;;;;;;5014574;28;20037;-52
2023/03/21 07:05:12;;;;;;;26.25;19.85;;;9.60;99.90;;;;;;4999621;28;20065;-52
2023/03/21 07:07:38;;;;;;;24.95;19.23;;;9.50;99.90;;;;;;5015770;28;20092;-51
2023/03/21 07:10:05;;;;;;;25.98;20.25;;;9.50;99.90;;;;;;5015675;28;20042;-51
2023/03/21 07:12:34;;;;;;;27.65;19.40;;;9.50;99.90;;;;;;5016133;28;20033;-51
2023/03/21 07:15:01;;;;;;;27.17;20.95;;;9.50;99.90;;;;;;5015222;28;20042;-50
2023/03/21 07:17:26;;;;;;;26.02;19.23;;;9.50;99.90;;;;;;4997415;28;20450;-50
2023/03/21 07:19:52;;;;;;;27.75;19.73;;;9.50;99.90;;;;;;4999402;28;20124;-51
2023/03/21 07:22:18;;;;;;;26.67;20.20;;;9.50;99.90;;;;;;5014418;28;20444;-53
2023/03/21 07:24:47;;;;;;;29.25;20.27;;;9.40;99.90;;;;;;5018522;28;20149;-52
2023/03/21 07:27:13;;;;;;;26.13;17.90;;;9.50;99.90;;;;;;5014410;28;20037;-53
2023/03/21 07:29:39;;;;;;;24.83;18.30;;;9.40;99.90;;;;;;5000734;28;20053;-52
2023/03/21 07:32:05;;;;;;;29.67;18.92;;;9.50;99.90;;;;;;5018089;28;20049;-51
2023/03/21 07:34:32;;;;;;;24.02;18.30;;;9.40;99.90;;;;;;5018806;28;20037;-52
2023/03/21 07:36:59;;;;;;;25.30;17.35;;;9.40;99.90;;;;;;5026115;28;20087;-55
2023/03/21 07:39:25;;;;;;;24.98;18.17;;;9.40;99.90;;;;;;5003864;28;20045;-53
2023/03/21 07:41:54;;;;;;;25.27;17.10;;;9.50;99.90;;;;;;5015324;28;20381;-50
2023/03/21 07:44:20;;;;;;;25.50;17.95;;;9.50;99.90;;;;;;5014228;28;20046;-52
2023/03/21 07:46:46;;;;;;;24.42;16.45;;;9.50;99.90;;;;;;5016239;28;20049;-54
2023/03/21 07:49:11;;;;;;;21.85;16.90;;;9.50;99.90;;;;;;4999156;28;20041;-52
2023/03/21 07:51:37;;;;;;;27.70;16.42;;;9.50;99.90;;;;;;4998036;28;20049;-51
2023/03/21 07:54:03;;;;;;;23.85;17.50;;;9.50;99.90;;;;;;5013857;28;20079;-54
2023/03/21 07:56:28;;;;;;;26.13;16.20;;;9.60;99.90;;;;;;5014040;28;20058;-51
2023/03/21 07:58:54;;;;;;;25.48;16.52;;;9.60;99.90;;;;;;5015301;28;20597;-51
2023/03/21 08:01:20;;;;;;;24.77;16.77;;;9.70;99.90;;;;;;5016628;28;21436;-53
2023/03/21 08:03:46;;;;;;;26.52;16.50;;;10.00;99.90;;;;;;5017955;28;20109;-52
2023/03/21 08:06:13;;;;;;;22.75;16.25;;;9.80;99.90;;;;;;5031302;28;20124;-52
2023/03/21 08:08:38;;;;;;;27.45;17.10;;;9.80;99.90;;;;;;5025824;28;20555;-51
2023/03/21 08:11:04;;;;;;;22.90;17.20;;;9.80;99.90;;;;;;5024129;28;20046;-55
2023/03/21 08:13:30;;;;;;;23.20;16.27;;;9.80;99.90;;;;;;5024847;28;20486;-53
2023/03/21 08:15:56;;;;;;;22.02;15.32;;;9.80;99.90;;;;;;5004238;28;20041;-52
2023/03/21 08:18:22;;;;;;;23.15;16.27;;;9.90;99.90;;;;;;5030859;28;20386;-56
2023/03/21 08:20:52;;;;;;;25.13;16.08;;;9.90;99.90;;;;;;5024961;28;20479;-51
2023/03/21 08:23:18;;;;;;;25.92;16.85;;;9.90;99.90;;;;;;5034012;28;20049;-53
2023/03/21 08:25:43;;;;;;;27.77;16.58;;;9.90;99.90;;;;;;5034340;28;20030;-52
2023/03/21 08:28:09;;;;;;;23.45;16.23;;;10.00;99.90;;;;;;5029430;28;20569;-54
2023/03/21 08:30:36;;;;;;;21.20;16.33;;;10.10;99.90;;;;;;5025724;28;20037;-53
2023/03/21 08:33:03;;;;;;;28.45;16.88;;;10.10;99.90;;;;;;5036470;28;20057;-53
2023/03/21 08:35:30;;;;;;;24.13;15.97;;;10.20;99.90;;;;;;4705052;22;20601;-53
2023/03/21 08:37:56;;;;;;;26.08;15.63;;;10.30;99.90;;;;;;5011235;28;20320;-54
2023/03/21 08:40:21;;;;;;;25.42;15.75;;;10.30;99.90;;;;;;5012750;28;20038;-56
2023/03/21 08:42:47;;;;;;;22.77;14.38;;;10.30;99.90;;;;;;5060319;22;20148;-55
2023/03/21 08:45:14;;;;;;;24.00;14.98;;;10.30;99.90;;;;;;5023169;28;20180;-53
2023/03/21 08:47:40;;;;;;;19.00;13.68;;;10.30;99.90;;;;;;5018230;28;20075;-54
2023/03/21 08:50:07;;;;;;;25.45;15.18;;;10.30;99.90;;;;;;5015949;28;20042;-52
2023/03/21 08:52:33;;;;;;;25.30;14.68;;;10.30;99.90;;;;;;5023232;28;20116;-56
2023/03/21 08:55:00;;;;;;;23.40;14.50;;;10.30;99.90;;;;;;5035224;28;20380;-52
2023/03/21 08:57:27;;;;;;;19.30;13.80;;;10.30;99.90;;;;;;5035504;28;20110;-53
2023/03/21 08:59:53;;;;;;;22.10;13.35;;;10.30;99.90;;;;;;5034906;28;20053;-55
2023/03/21 09:02:18;;;;;;;22.65;14.55;;;10.40;99.90;;;;;;5033901;28;20048;-53
2023/03/21 09:04:44;;;;;;;21.45;13.77;;;10.40;99.90;;;;;;5030499;28;20054;-55
2023/03/21 09:07:13;;;;;;;22.67;13.65;;;10.40;99.90;;;;;;5035043;28;20124;-51
2023/03/21 09:09:38;;;;;;;20.02;14.10;;;10.40;99.90;;;;;;5035144;28;20442;-54
2023/03/21 09:12:04;;;;;;;22.35;15.32;;;10.50;99.90;;;;;;5035296;28;20048;-52
2023/03/21 09:14:30;;;;;;;22.42;14.18;;;10.50;99.90;;;;;;5033424;28;20042;-53
2023/03/21 09:16:56;;;;;;;22.25;14.35;;;10.50;99.90;;;;;;5034648;28;20038;-51
2023/03/21 09:19:23;;;;;;;20.90;13.95;;;10.60;99.90;;;;;;5034396;28;20041;-53
2023/03/21 09:21:48;;;;;;;21.95;14.50;;;10.60;99.90;;;;;;5033106;28;20565;-53
2023/03/21 09:24:16;;;;;;;26.38;14.88;;;10.60;99.90;;;;;;5027612;28;20045;-54
2023/03/21 09:26:43;;;;;;;;;;;10.60;99.90;;;;;;5034722;28;20526;-53
2023/03/21 09:29:09;;;;;;;23.20;13.48;;;10.60;99.90;;;;;;5034424;28;19921;-52
2023/03/21 09:31:35;;;;;;;22.92;14.88;;;10.70;99.90;;;;;;5034689;28;20045;-54
2023/03/21 09:34:00;;;;;;;23.05;14.23;;;10.70;99.90;;;;;;5031929;28;20428;-52
2023/03/21 09:36:26;;;;;;;21.42;13.88;;;10.70;99.90;;;;;;5033178;28;20038;-52
2023/03/21 09:38:53;;;;;;;23.40;14.35;;;10.70;99.90;;;;;;5035132;28;20447;-52
2023/03/21 09:41:34;;;;;;;20.40;13.98;;;10.80;99.90;;;;;;5027096;28;20084;-55
2023/03/21 09:44:18;;;;;;;23.25;14.02;;;10.80;99.90;;;;;;5032852;28;20518;-50
2023/03/21 13:15:47;;;;;;;13.18;7.63;;;12.80;99.90;;;;;;4383967;22;20095;-53
2023/03/21 13:18:38;;;;;;;9.38;7.13;;;12.80;99.90;;;;;;5055100;28;20047;-52
2023/03/21 13:21:30;;;;;;;14.95;8.07;;;13.00;99.90;;;;;;5047561;28;21141;-52
2023/03/21 13:24:21;;;;;;;11.40;8.25;;;13.20;99.90;;;;;;5033087;28;20049;-52
2023/03/21 13:26:51;;;;;;;13.05;7.40;;;13.40;99.90;;;;;;5048334;28;20454;-52
2023/03/21 13:29:26;;;;;;;10.55;7.38;;;13.30;99.90;;;;;;5050622;28;20072;-51
2023/03/21 13:31:56;;;;;;;13.45;7.00;;;13.20;99.90;;;;;;5049877;28;20053;-54
2023/03/21 13:34:23;;;;;;;10.73;7.05;;;13.10;99.90;;;;;;5043851;28;20049;-50
2023/03/21 13:36:50;;;;;;;10.68;6.65;;;13.10;99.90;;;;;;5052308;28;20041;-54
2023/03/21 13:39:19;;;;;;;11.35;7.32;;;13.00;99.90;;;;;;5052040;28;20037;-54
2023/03/21 13:41:48;;;;;;;11.82;7.30;;;12.90;99.90;;;;;;5054881;28;20078;-53
2023/03/21 13:44:38;;;;;;;11.02;7.13;;;12.90;99.90;;;;;;5051481;28;20116;-50
2023/03/21 13:47:38;;;;;;;10.05;6.65;;;13.00;99.90;;;;;;5042594;28;20033;-50
2023/03/21 13:50:21;;;;;;;12.02;7.00;;;12.80;99.90;;;;;;5044898;28;20443;-50
2023/03/21 13:53:10;;;;;;;12.98;7.15;;;12.80;99.90;;;;;;5054110;28;20505;-51
2023/03/21 13:55:43;;;;;;;10.55;6.60;;;12.80;99.90;;;;;;5048904;28;20044;-51
2023/03/21 13:58:39;;;;;;;13.02;7.13;;;12.80;99.90;;;;;;5054107;28;20049;-51
2023/03/21 14:01:08;;;;;;;13.10;7.13;;;12.70;99.90;;;;;;5053364;28;20068;-53
2023/03/21 14:03:34;;;;;;;13.68;7.80;;;12.60;99.90;;;;;;5054463;28;20126;-53
2023/03/21 14:06:00;;;;;;;11.82;7.35;;;12.70;99.90;;;;;;5054042;28;20033;-52
2023/03/21 14:08:27;;;;;;;10.95;7.22;;;12.80;99.90;;;;;;5053310;28;20033;-50
2023/03/21 14:10:58;;;;;;;10.07;6.82;;;13.00;99.90;;;;;;5051959;28;20044;-51
2023/03/21 14:13:25;;;;;;;13.88;7.32;;;13.00;99.90;;;;;;5045956;28;20090;-54
2023/03/21 14:16:00;;;;;;;14.05;7.63;;;13.00;99.90;;;;;;5047496;28;20049;-54
2023/03/21 14:18:27;;;;;;;10.35;6.05;;;13.10;99.90;;;;;;5054010;28;20386;-53
2023/03/21 14:20:55;;;;;;;14.75;6.97;;;13.20;99.90;;;;;;5053737;28;20040;-54
2023/03/21 14:23:21;;;;;;;9.68;6.28;;;13.20;99.90;;;;;;5059462;28;20048;-52
2023/03/21 14:25:48;;;;;;;13.13;6.70;;;13.40;99.90;;;;;;5054290;28;20069;-50
2023/03/21 14:28:22;;;;;;;11.15;6.95;;;13.50;99.90;;;;;;5047150;28;20563;-50
2023/03/21 14:30:54;;;;;;;10.18;6.60;;;13.60;99.90;;;;;;5046191;28;20052;-51
2023/03/21 14:33:28;;;;;;;10.70;7.18;;;13.90;99.90;;;;;;5050699;28;20164;-52
2023/03/21 14:36:02;;;;;;;9.75;6.32;;;14.00;99.90;;;;;;5050820;28;20183;-50
2023/03/21 14:38:33;;;;;;;10.65;6.50;;;14.20;99.90;;;;;;5044551;28;20045;-52
2023/03/21 14:40:59;;;;;;;11.00;6.78;;;14.50;99.90;;;;;;5052549;28;20090;-51
2023/03/21 14:43:25;;;;;;;12.98;6.82;;;14.80;99.90;;;;;;5047273;28;20049;-54
2023/03/21 14:45:54;;;;;;;7.18;5.88;;;14.70;99.90;;;;;;5032712;28;20041;-50
2023/03/21 14:48:28;;;;;;;8.48;5.70;;;14.70;99.90;;;;;;5050271;28;20194;-53
2023/03/21 14:50:56;;;;;;;9.73;5.90;;;14.50;99.90;;;;;;5052835;28;20129;-51
2023/03/21 14:53:26;;;;;;;9.32;5.97;;;14.30;99.90;;;;;;5052068;28;20067;-49
2023/03/21 14:56:06;;;;;;;8.75;5.80;;;14.20;99.90;;;;;;5052611;28;20049;-50
2023/03/21 14:58:33;;;;;;;11.52;6.72;;;14.10;99.90;;;;;;5048737;28;20175;-51
2023/03/21 15:01:04;;;;;;;10.50;6.15;;;14.10;99.90;;;;;;5052612;28;20045;-50
2023/03/21 15:03:31;;;;;;;9.13;6.57;;;14.10;99.90;;;;;;5051389;28;20045;-50
2023/03/21 15:05:58;;;;;;;8.20;6.22;;;14.10;99.90;;;;;;5053021;28;20051;-50
2023/03/21 15:08:25;;;;;;;8.43;6.25;;;14.30;99.90;;;;;;5067576;28;20041;-51
2023/03/21 15:10:55;;;;;;;;;;;14.60;99.90;;;;;;5049092;28;20037;-51
2023/03/21 15:13:24;;;;;;;13.15;6.30;;;14.70;99.90;;;;;;5050831;28;19940;-50
2023/03/21 15:15:53;;;;;;;9.23;6.28;;;14.60;99.90;;;;;;5051755;28;20045;-51
2023/03/21 15:18:31;;;;;;;9.45;6.47;;;14.60;99.90;;;;;;5052094;28;20481;-54
2023/03/21 15:21:02;;;;;;;10.85;6.38;;;14.50;99.90;;;;;;5051482;28;20386;-49
2023/03/21 15:23:38;;;;;;;13.35;7.07;;;14.30;99.90;;;;;;5040280;28;20461;-50
2023/03/21 15:26:05;;;;;;;8.10;5.90;;;14.20;99.90;;;;;;5049000;28;20470;-52
2023/03/21 15:28:33;;;;;;;11.52;6.45;;;14.00;99.90;;;;;;5048762;28;20134;-49
2023/03/21 15:31:00;;;;;;;12.40;6.35;;;13.90;99.90;;;;;;5032092;28;20041;-50
2023/03/21 15:33:26;;;;;;;8.45;6.53;;;13.80;99.90;;;;;;5044608;28;20033;-52
2023/03/21 15:35:55;;;;;;;9.65;5.70;;;13.70;99.90;;;;;;5049943;28;20037;-52
2023/03/21 15:38:21;;;;;;;10.05;6.10;;;13.60;99.90;;;;;;5030831;28;20045;-51
2023/03/21 15:40:47;;;;;;;10.43;6.55;;;13.60;99.90;;;;;;5048134;28;20114;-52
2023/03/21 15:43:18;;;;;;;10.70;6.43;;;13.50;99.90;;;;;;5045020;28;20049;-50
2023/03/21 15:45:53;;;;;;;11.88;6.30;;;13.50;99.90;;;;;;5051893;28;20056;-50
2023/03/21 15:48:28;;;;;;;11.60;6.03;;;13.50;99.90;;;;;;5047119;28;20068;-53
2023/03/21 15:51:03;;;;;;;8.68;6.25;;;13.40;99.90;;;;;;5048764;28;20990;-51
2023/03/21 15:53:32;;;;;;;7.95;6.35;;;13.30;99.90;;;;;;5043156;28;20655;-53
2023/03/21 15:56:04;;;;;;;9.13;6.60;;;13.20;99.90;;;;;;5047585;28;20044;-51
2023/03/21 15:58:53;;;;;;;8.48;6.53;;;13.20;99.90;;;;;;5048181;28;20048;-55
2023/03/21 16:01:21;;;;;;;9.60;6.32;;;13.20;99.90;;;;;;5032337;28;20045;-51
2023/03/21 16:03:53;;;;;;;9.55;5.90;;;13.10;99.90;;;;;;5047279;28;20124;-49
2023/03/21 16:06:32;;;;;;;12.27;6.80;;;13.10;99.90;;;;;;5048035;28;20045;-53
2023/03/21 16:09:23;;;;;;;9.20;6.10;;;13.00;99.90;;;;;;5044829;28;20042;-51
2023/03/21 16:11:57;;;;;;;10.50;6.13;;;13.10;99.90;;;;;;5023237;28;20103;-51
2023/03/21 16:14:28;;;;;;;11.25;6.30;;;13.10;99.90;;;;;;5051445;28;20048;-51
2023/03/21 16:16:56;;;;;;;9.55;6.45;;;13.10;99.90;;;;;;5049801;28;20484;-54
2023/03/21 16:19:23;;;;;;;9.57;6.65;;;13.10;99.90;;;;;;5051319;28;20060;-53